Time;durP1;ratioP1;P1;durP2;ratioP2;P2;SDS_P1;SDS_P2;PMS_P1;PMS_P2;Temp;Humidity;BMP_temperature;BMP_pressure;BME280_temperature;BME280_humidity;BME280_pressure;Samples;Min_cycle;Max_cycle;Signal;HPM_P1;HPM_P2
2022/01/11 00:00:15;;;;;;;53.15;20.55;;;;;;;;;;5018562;28;20471;-78
2022/01/11 00:03:02;;;;;;;56.47;21.15;;;;;;;;;;5035322;28;20029;-78
2022/01/11 00:08:29;;;;;;;59.40;19.45;;;;;;;;;;5035568;28;20121;-78
2022/01/11 00:11:10;;;;;;;53.83;19.88;;;;;;;;;;5036187;28;20029;-77
2022/01/11 00:13:55;;;;;;;61.65;19.33;;;;;;;;;;5035161;28;20025;-78
2022/01/11 00:19:41;;;;;;;46.20;18.42;;;;;;;;;;5022607;28;20044;-77
2022/01/11 00:22:29;;;;;;;;;;;;;;;;;;;;;
2022/01/11 00:25:05;;;;;;;50.42;18.77;;;;;;;;;;5033392;28;20029;-77
2022/01/11 00:27:58;;;;;;;68.50;21.17;;;;;;;;;;5033243;28;20022;-78
2022/01/11 00:30:30;;;;;;;58.42;20.90;;;;;;;;;;5008821;28;20040;-77
2022/01/11 00:33:04;;;;;;;51.45;18.60;;;;;;;;;;5033746;28;20031;-79
2022/01/11 00:35:44;;;;;;;54.75;20.55;;;;;;;;;;5017741;28;20013;-78
2022/01/11 00:38:35;;;;;;;48.42;19.52;;;;;;;;;;5035366;28;20045;-78
2022/01/11 00:41:14;;;;;;;;;;;;;;;;;;;;;
2022/01/11 00:43:51;;;;;;;51.03;19.73;;;;;;;;;;5035523;28;20113;-77
2022/01/11 00:46:19;;;;;;;59.38;21.05;;;;;;;;;;5035763;28;20474;-77
2022/01/11 00:48:44;;;;;;;51.15;19.48;;;;;;;;;;5035412;28;20021;-77
2022/01/11 00:51:50;;;;;;;53.15;19.75;;;;;;;;;;5035473;28;20030;-77
2022/01/11 00:54:16;;;;;;;60.22;20.70;;;;;;;;;;5033681;28;20041;-78
2022/01/11 00:56:56;;;;;;;;;;;;;;;;;;;;;
2022/01/11 00:59:32;;;;;;;;;;;;;;;;;;;;;
2022/01/11 01:02:06;;;;;;;49.03;20.17;;;;;;;;;;5037763;28;20124;-78
2022/01/11 01:04:41;;;;;;;;;;;;;;;;;;5040352;28;20477;-78
2022/01/11 01:07:10;;;;;;;42.97;15.65;;;;;;;;;;5040002;28;20337;-78
2022/01/11 01:10:01;;;;;;;47.35;19.08;;;;;;;;;;5040043;28;20032;-78
2022/01/11 01:12:42;;;;;;;48.80;18.17;;;;;;;;;;5041784;28;20025;-78
2022/01/11 01:16:05;;;;;;;48.38;17.77;;;;;;;;;;5040611;28;20117;-78
2022/01/11 01:18:36;;;;;;;39.58;16.27;;;;;;;;;;5040194;28;20120;-77
2022/01/11 01:21:07;;;;;;;50.60;19.33;;;;;;;;;;5038534;28;20116;-77
2022/01/11 01:23:40;;;;;;;41.20;17.75;;;;;;;;;;5038813;28;20032;-78
2022/01/11 01:26:27;;;;;;;45.17;18.48;;;;;;;;;;5039620;28;20029;-77
2022/01/11 01:29:00;;;;;;;45.13;18.25;;;;;;;;;;5039579;28;20442;-78
2022/01/11 01:31:30;;;;;;;47.43;18.20;;;;;;;;;;5021220;28;20024;-77
2022/01/11 01:34:05;;;;;;;51.53;20.40;;;;;;;;;;5040740;28;20045;-78
2022/01/11 01:36:43;;;;;;;50.60;18.30;;;;;;;;;;5024235;28;20021;-79
2022/01/11 01:39:36;;;;;;;50.42;19.13;;;;;;;;;;5041009;28;20044;-77
2022/01/11 01:42:11;;;;;;;47.88;18.40;;;;;;;;;;5039988;28;20108;-79
2022/01/11 01:44:53;;;;;;;47.85;18.08;;;;;;;;;;5039250;28;20022;-79
2022/01/11 01:47:33;;;;;;;50.70;20.30;;;;;;;;;;5044209;28;20104;-79
2022/01/11 01:50:08;;;;;;;51.13;18.23;;;;;;;;;;5044409;28;20029;-79
2022/01/11 01:52:47;;;;;;;52.33;19.75;;;;;;;;;;5026106;28;20040;-79
2022/01/11 01:55:23;;;;;;;57.13;20.48;;;;;;;;;;5028564;28;20060;-79
2022/01/11 01:58:03;;;;;;;52.53;19.85;;;;;;;;;;5044991;28;20025;-79
2022/01/11 02:00:52;;;;;;;46.80;16.55;;;;;;;;;;5044563;28;20033;-79
2022/01/11 02:03:30;;;;;;;44.78;17.88;;;;;;;;;;5026375;28;20021;-79
2022/01/11 02:06:05;;;;;;;51.03;20.08;;;;;;;;;;5023088;28;20022;-78
2022/01/11 02:08:36;;;;;;;57.17;19.17;;;;;;;;;;5040253;28;20025;-78
2022/01/11 02:11:02;;;;;;;60.83;21.40;;;;;;;;;;5038789;28;20505;-78
2022/01/11 02:13:43;;;;;;;47.75;18.40;;;;;;;;;;5020413;28;20033;-77
2022/01/11 02:16:18;;;;;;;;;;;;;;;;;;;;;
2022/01/11 02:18:49;;;;;;;64.55;23.60;;;;;;;;;;5038949;28;20097;-78
2022/01/11 02:21:36;;;;;;;55.42;22.45;;;;;;;;;;5038349;28;20101;-78
2022/01/11 02:24:02;;;;;;;49.92;18.85;;;;;;;;;;5038054;28;20025;-78
2022/01/11 02:26:41;;;;;;;56.72;21.73;;;;;;;;;;5037827;28;20537;-77
2022/01/11 02:29:37;;;;;;;63.78;21.83;;;;;;;;;;5037702;28;20075;-79
2022/01/11 02:32:23;;;;;;;57.38;22.13;;;;;;;;;;5038629;28;20025;-79
2022/01/11 02:35:05;;;;;;;58.17;21.98;;;;;;;;;;5040506;28;20025;-78
2022/01/11 02:37:42;;;;;;;57.75;19.65;;;;;;;;;;5020379;28;20063;-78
2022/01/11 02:40:23;;;;;;;;;;;;;;;;;;;;;
2022/01/11 02:43:02;;;;;;;51.75;18.92;;;;;;;;;;5043059;28;20106;-78
2022/01/11 02:45:35;;;;;;;56.70;22.75;;;;;;;;;;5038015;28;20047;-78
2022/01/11 02:48:02;;;;;;;60.72;21.85;;;;;;;;;;5039637;28;20064;-78
2022/01/11 02:50:41;;;;;;;55.10;23.45;;;;;;;;;;5038541;28;20030;-78
2022/01/11 02:53:11;;;;;;;42.47;17.40;;;;;;;;;;5020239;28;20064;-78
2022/01/11 02:55:54;;;;;;;53.22;18.77;;;;;;;;;;5020302;28;20048;-79
2022/01/11 02:58:22;;;;;;;59.33;22.77;;;;;;;;;;5020371;28;20026;-79
2022/01/11 03:00:48;;;;;;;38.63;16.73;;;;;;;;;;5041756;28;20056;-79
2022/01/11 03:03:25;;;;;;;58.35;20.80;;;;;;;;;;5041160;28;20028;-78
2022/01/11 03:06:06;;;;;;;55.10;22.70;;;;;;;;;;5042174;28;20052;-78
2022/01/11 03:08:38;;;;;;;68.45;23.00;;;;;;;;;;5037699;28;20395;-77
2022/01/11 03:11:06;;;;;;;52.83;21.33;;;;;;;;;;5034367;28;20032;-78
2022/01/11 03:13:38;;;;;;;66.43;24.95;;;;;;;;;;5034120;28;20131;-77
2022/01/11 03:16:25;;;;;;;55.03;22.70;;;;;;;;;;5034410;28;20107;-77
2022/01/11 03:18:50;;;;;;;52.78;22.17;;;;;;;;;;5016646;28;20036;-78
2022/01/11 03:21:20;;;;;;;67.63;25.08;;;;;;;;;;5036078;28;20033;-77
2022/01/11 03:23:57;;;;;;;55.30;19.95;;;;;;;;;;5036640;28;20069;-78
2022/01/11 03:26:28;;;;;;;61.03;21.90;;;;;;;;;;5036047;28;20041;-77
2022/01/11 03:28:53;;;;;;;74.72;25.38;;;;;;;;;;5036399;28;20033;-78
2022/01/11 03:31:22;;;;;;;68.88;24.65;;;;;;;;;;5036013;28;20028;-78
2022/01/11 03:33:52;;;;;;;64.15;22.08;;;;;;;;;;5035721;28;20095;-78
2022/01/11 03:36:19;;;;;;;75.53;27.13;;;;;;;;;;5036148;28;20060;-78
2022/01/11 03:38:45;;;;;;;62.95;20.13;;;;;;;;;;5037139;28;20060;-79
2022/01/11 03:41:11;;;;;;;71.50;25.80;;;;;;;;;;5034588;28;20026;-79
2022/01/11 03:43:37;;;;;;;83.05;28.55;;;;;;;;;;5035614;28;20017;-78
2022/01/11 03:46:03;;;;;;;70.65;26.42;;;;;;;;;;5035930;28;20063;-77
2022/01/11 03:48:31;;;;;;;67.10;25.42;;;;;;;;;;5034772;28;20087;-77
2022/01/11 03:51:04;;;;;;;67.63;25.05;;;;;;;;;;5016872;28;20467;-78
2022/01/11 03:53:48;;;;;;;;;;;;;;;;;;;;;
2022/01/11 03:56:29;;;;;;;71.00;24.30;;;;;;;;;;5036687;28;20032;-77
2022/01/11 03:59:01;;;;;;;63.80;23.20;;;;;;;;;;5036455;28;20479;-78
2022/01/11 04:01:43;;;;;;;88.45;27.30;;;;;;;;;;5034785;28;20132;-79
2022/01/11 04:04:27;;;;;;;;;;;;;;;;;;;;;
2022/01/11 04:07:05;;;;;;;70.05;25.63;;;;;;;;;;5034779;28;20028;-79
2022/01/11 04:09:31;;;;;;;76.38;26.38;;;;;;;;;;5034671;28;20454;-78
2022/01/11 04:12:03;;;;;;;83.10;27.17;;;;;;;;;;5034335;28;20025;-77
2022/01/11 04:14:38;;;;;;;70.07;22.60;;;;;;;;;;5017249;28;20030;-79
2022/01/11 04:17:08;;;;;;;68.28;24.38;;;;;;;;;;5036781;28;20029;-77
2022/01/11 04:19:57;;;;;;;66.63;21.40;;;;;;;;;;5037289;28;20022;-79
2022/01/11 04:22:35;;;;;;;63.45;21.67;;;;;;;;;;5042306;28;20064;-79
2022/01/11 04:25:25;;;;;;;63.28;21.35;;;;;;;;;;5023050;28;20030;-78
2022/01/11 04:28:16;;;;;;;47.80;19.23;;;;;;;;;;5041491;28;20112;-78
2022/01/11 04:31:00;;;;;;;59.05;21.40;;;;;;;;;;5042417;28;20438;-78
2022/01/11 04:33:34;;;;;;;56.28;21.75;;;;;;;;;;5042137;28;20045;-79
2022/01/11 04:36:23;;;;;;;71.82;23.73;;;;;;;;;;5037602;28;20025;-78
2022/01/11 04:38:52;;;;;;;61.58;19.48;;;;;;;;;;5041554;28;20052;-79
2022/01/11 04:41:29;;;;;;;54.22;19.48;;;;;;;;;;5040402;28;20497;-80
2022/01/11 04:44:08;;;;;;;45.60;15.18;;;;;;;;;;5041750;28;20034;-78
2022/01/11 04:46:50;;;;;;;73.75;23.83;;;;;;;;;;5040320;28;20029;-78
2022/01/11 04:49:33;;;;;;;71.90;23.17;;;;;;;;;;5040341;28;20033;-78
2022/01/11 04:52:19;;;;;;;;;;;;;;;;;;;;;
2022/01/11 04:54:47;;;;;;;70.78;24.88;;;;;;;;;;5040047;28;20098;-78
2022/01/11 04:57:34;;;;;;;72.72;23.75;;;;;;;;;;5039003;28;20035;-79
2022/01/11 05:00:08;;;;;;;71.93;23.55;;;;;;;;;;5039676;28;20513;-78
2022/01/11 05:02:39;;;;;;;63.08;22.52;;;;;;;;;;5038124;28;20037;-78
2022/01/11 05:05:12;;;;;;;48.70;18.13;;;;;;;;;;5040042;28;20022;-78
2022/01/11 05:07:40;;;;;;;63.53;22.20;;;;;;;;;;5039146;28;20133;-77
2022/01/11 05:10:14;;;;;;;77.57;22.30;;;;;;;;;;5038070;28;20038;-78
2022/01/11 05:12:42;;;;;;;57.72;20.13;;;;;;;;;;5037938;28;20108;-78
2022/01/11 05:15:19;;;;;;;55.65;19.92;;;;;;;;;;5020672;28;20065;-78
2022/01/11 05:17:51;;;;;;;65.72;21.20;;;;;;;;;;5020639;28;20061;-78
2022/01/11 05:20:19;;;;;;;58.65;20.00;;;;;;;;;;5039511;28;20028;-79
2022/01/11 05:22:52;;;;;;;66.45;21.98;;;;;;;;;;5042196;28;20479;-79
2022/01/11 05:25:29;;;;;;;62.40;20.80;;;;;;;;;;5043725;28;20060;-78
2022/01/11 05:28:05;;;;;;;63.35;20.88;;;;;;;;;;5045003;28;20040;-78
2022/01/11 05:30:52;;;;;;;60.22;21.85;;;;;;;;;;5043550;28;20060;-79
2022/01/11 05:33:17;;;;;;;59.58;21.52;;;;;;;;;;5043641;28;20037;-79
2022/01/11 05:35:47;;;;;;;58.28;19.85;;;;;;;;;;5044007;28;20475;-79
2022/01/11 05:38:32;;;;;;;61.50;22.15;;;;;;;;;;5042496;28;20029;-76
2022/01/11 05:41:08;;;;;;;61.53;21.17;;;;;;;;;;5030805;28;20029;-78
2022/01/11 05:43:38;;;;;;;65.57;21.35;;;;;;;;;;5049034;28;20200;-78
2022/01/11 05:46:15;;;;;;;67.45;22.50;;;;;;;;;;5037978;28;20029;-78
2022/01/11 05:48:44;;;;;;;71.13;21.92;;;;;;;;;;5037903;28;20095;-78
2022/01/11 05:51:15;;;;;;;50.53;17.58;;;;;;;;;;5019363;28;20041;-77
2022/01/11 05:53:47;;;;;;;69.28;22.70;;;;;;;;;;5038132;28;20029;-79
2022/01/11 05:56:25;;;;;;;71.20;22.50;;;;;;;;;;5037535;28;20141;-79
2022/01/11 05:59:12;;;;;;;65.00;22.70;;;;;;;;;;5019740;28;20050;-78
2022/01/11 06:01:48;;;;;;;72.30;23.65;;;;;;;;;;5039633;28;20458;-79
2022/01/11 06:04:24;;;;;;;;;;;;;;;;;;;;;
2022/01/11 06:06:50;;;;;;;75.30;22.67;;;;;;;;;;5039382;28;20104;-78
2022/01/11 06:09:29;;;;;;;;;;;;;;;;;;;;;
2022/01/11 06:12:26;;;;;;;66.30;20.10;;;;;;;;;;5009131;28;20041;-78
2022/01/11 06:14:56;;;;;;;56.65;20.40;;;;;;;;;;5038886;28;20087;-78
2022/01/11 06:17:22;;;;;;;64.25;20.40;;;;;;;;;;5037425;28;20021;-78
2022/01/11 06:19:52;;;;;;;63.40;21.70;;;;;;;;;;5042305;28;20037;-79
2022/01/11 06:22:27;;;;;;;66.75;21.98;;;;;;;;;;5025340;28;20083;-78
2022/01/11 06:25:01;;;;;;;66.32;22.05;;;;;;;;;;5038163;28;20025;-78
2022/01/11 06:27:32;;;;;;;69.53;22.38;;;;;;;;;;5038925;28;20026;-79
2022/01/11 06:30:11;;;;;;;69.35;20.80;;;;;;;;;;5041127;28;20075;-79
2022/01/11 06:32:47;;;;;;;53.88;20.73;;;;;;;;;;5024270;28;20029;-80
2022/01/11 06:35:17;;;;;;;44.70;15.32;;;;;;;;;;5026166;28;20045;-79
2022/01/11 06:37:55;;;;;;;51.47;14.27;;;;;;;;;;5044118;28;20022;-79
2022/01/11 06:40:38;;;;;;;55.05;18.05;;;;;;;;;;5037329;28;20049;-78
2022/01/11 06:43:04;;;;;;;59.10;19.20;;;;;;;;;;5039818;28;20176;-78
2022/01/11 06:45:41;;;;;;;;;;;;;;;;;;;;;
2022/01/11 06:48:16;;;;;;;57.63;21.20;;;;;;;;;;5038975;28;20081;-79
2022/01/11 06:50:44;;;;;;;55.08;18.65;;;;;;;;;;5038667;28;20022;-79
2022/01/11 06:53:35;;;;;;;60.42;19.25;;;;;;;;;;5039402;28;20022;-79
2022/01/11 06:56:05;;;;;;;47.88;17.52;;;;;;;;;;5039498;28;20128;-79
2022/01/11 06:58:33;;;;;;;58.17;18.80;;;;;;;;;;5039038;28;20025;-78
2022/01/11 07:00:58;;;;;;;57.40;20.13;;;;;;;;;;5038682;28;20021;-80
2022/01/11 07:03:23;;;;;;;48.10;14.50;;;;;;;;;;5037324;28;20032;-79
2022/01/11 07:05:49;;;;;;;53.85;17.23;;;;;;;;;;5039983;28;20047;-79
2022/01/11 07:08:52;;;;;;;56.90;19.05;;;;;;;;;;5041064;28;20030;-79
2022/01/11 07:11:21;;;;;;;46.20;17.25;;;;;;;;;;5040034;28;20037;-80
2022/01/11 07:13:47;;;;;;;38.75;15.07;;;;;;;;;;5036951;28;20124;-79
2022/01/11 07:16:15;;;;;;;33.58;11.15;;;;;;;;;;5040235;28;20056;-79
2022/01/11 07:18:44;;;;;;;48.60;17.05;;;;;;;;;;5022326;28;20021;-79
2022/01/11 07:21:10;;;;;;;50.97;15.70;;;;;;;;;;5039164;28;20017;-78
2022/01/11 07:27:25;;;;;;;;;;;;;;;;;;;;;
2022/01/11 07:30:44;;;;;;;41.50;14.57;;;;;;;;;;5037331;28;20441;-79
2022/01/11 07:33:42;;;;;;;;;;;;;;;;;;;;;
2022/01/11 07:39:32;;;;;;;52.38;17.88;;;;;;;;;;5011942;28;20029;-78
2022/01/11 07:42:11;;;;;;;35.80;12.48;;;;;;;;;;5039221;28;20047;-79
2022/01/11 07:44:54;;;;;;;;;;;;;;;;;;;;;
2022/01/11 07:47:28;;;;;;;49.40;16.63;;;;;;;;;;5034522;28;20116;-76
2022/01/11 07:49:58;;;;;;;39.47;14.45;;;;;;;;;;5034794;28;20536;-78
2022/01/11 07:52:23;;;;;;;51.35;16.83;;;;;;;;;;5034774;28;20153;-77
2022/01/11 07:54:49;;;;;;;43.90;15.88;;;;;;;;;;5033744;28;20025;-78
2022/01/11 07:57:14;;;;;;;42.10;16.33;;;;;;;;;;5036352;28;20040;-78
2022/01/11 07:59:45;;;;;;;40.47;14.52;;;;;;;;;;5018083;28;20082;-78
2022/01/11 08:02:36;;;;;;;37.00;12.45;;;;;;;;;;5034907;28;20486;-78
2022/01/11 08:05:03;;;;;;;49.25;15.52;;;;;;;;;;5035054;28;20025;-78
2022/01/11 08:07:29;;;;;;;36.90;11.93;;;;;;;;;;5034925;28;20479;-78
2022/01/11 08:09:54;;;;;;;46.92;15.55;;;;;;;;;;5035152;28;20033;-78
2022/01/11 08:12:22;;;;;;;41.40;14.15;;;;;;;;;;5027022;28;20028;-78
2022/01/11 08:14:51;;;;;;;42.17;14.15;;;;;;;;;;5045764;28;20033;-78
2022/01/11 08:17:29;;;;;;;49.67;15.90;;;;;;;;;;5045535;28;20467;-78
2022/01/11 08:19:57;;;;;;;37.88;13.20;;;;;;;;;;5041521;28;20077;-78
2022/01/11 08:22:27;;;;;;;40.35;15.65;;;;;;;;;;5041482;28;20025;-78
2022/01/11 08:25:05;;;;;;;;;;;;;;;;;;;;;
2022/01/11 08:27:31;;;;;;;32.50;12.10;;;;;;;;;;5041819;28;20497;-78
2022/01/11 08:30:00;;;;;;;42.60;13.98;;;;;;;;;;5041432;28;20107;-78
2022/01/11 08:32:27;;;;;;;37.13;13.95;;;;;;;;;;5043665;28;20064;-78
2022/01/11 08:34:53;;;;;;;41.53;14.75;;;;;;;;;;5041775;28;20095;-78
2022/01/11 08:37:18;;;;;;;34.95;13.40;;;;;;;;;;5023978;28;20372;-78
2022/01/11 08:39:46;;;;;;;43.42;14.15;;;;;;;;;;5046590;28;20479;-78
2022/01/11 08:42:27;;;;;;;52.38;16.67;;;;;;;;;;5046035;28;20025;-79
2022/01/11 08:44:53;;;;;;;43.53;15.27;;;;;;;;;;5041314;28;20036;-78
2022/01/11 08:47:24;;;;;;;39.20;14.60;;;;;;;;;;5038890;28;20494;-78
2022/01/11 08:49:53;;;;;;;39.83;13.98;;;;;;;;;;5040737;28;20036;-77
2022/01/11 08:52:23;;;;;;;49.90;16.00;;;;;;;;;;5040893;28;20104;-78
2022/01/11 08:54:56;;;;;;;40.58;14.27;;;;;;;;;;5023297;28;20021;-78
2022/01/11 08:57:33;;;;;;;43.17;15.77;;;;;;;;;;5040688;28;20033;-78
2022/01/11 09:00:09;;;;;;;42.03;15.80;;;;;;;;;;5040788;28;20501;-78
2022/01/11 09:02:37;;;;;;;46.28;14.45;;;;;;;;;;5023492;28;20037;-78
2022/01/11 09:05:05;;;;;;;49.50;16.85;;;;;;;;;;5022765;28;20025;-78
2022/01/11 09:07:31;;;;;;;46.03;16.10;;;;;;;;;;5041861;28;20032;-78
2022/01/11 09:09:59;;;;;;;43.88;16.70;;;;;;;;;;5044669;28;20021;-79
2022/01/11 09:12:29;;;;;;;39.03;13.88;;;;;;;;;;5043623;28;20032;-79
2022/01/11 09:14:54;;;;;;;45.58;15.13;;;;;;;;;;5042386;28;20438;-78
2022/01/11 09:17:24;;;;;;;44.72;14.98;;;;;;;;;;5025892;28;20017;-78
2022/01/11 09:19:50;;;;;;;34.92;13.15;;;;;;;;;;5026007;28;20112;-78
2022/01/11 09:22:25;;;;;;;48.90;16.25;;;;;;;;;;5041665;28;20123;-78
2022/01/11 09:24:59;;;;;;;44.50;15.90;;;;;;;;;;5024096;28;20029;-78
2022/01/11 09:27:27;;;;;;;55.22;18.02;;;;;;;;;;5039464;28;20029;-78
2022/01/11 09:29:52;;;;;;;42.53;14.80;;;;;;;;;;5039573;28;20553;-78
2022/01/11 09:32:18;;;;;;;49.30;17.10;;;;;;;;;;5036219;28;20067;-78
2022/01/11 09:34:51;;;;;;;47.05;15.77;;;;;;;;;;5038688;28;20022;-78
2022/01/11 09:37:19;;;;;;;60.70;18.07;;;;;;;;;;5023217;28;20490;-78
2022/01/11 09:39:48;;;;;;;47.70;17.40;;;;;;;;;;5023769;28;20120;-78
2022/01/11 09:42:15;;;;;;;49.00;16.98;;;;;;;;;;5053006;28;20060;-78
2022/01/11 09:44:43;;;;;;;41.20;15.15;;;;;;;;;;5037834;28;20037;-78
2022/01/11 09:47:11;;;;;;;47.10;15.00;;;;;;;;;;5049795;28;20033;-79
2022/01/11 09:49:38;;;;;;;41.15;16.15;;;;;;;;;;5025079;28;20112;-79
2022/01/11 09:52:07;;;;;;;59.10;17.77;;;;;;;;;;5042406;28;20017;-78
2022/01/11 09:54:36;;;;;;;43.38;15.75;;;;;;;;;;5024585;28;20044;-78
2022/01/11 09:57:04;;;;;;;43.22;15.80;;;;;;;;;;5042211;28;20082;-78
2022/01/11 09:59:30;;;;;;;54.55;18.58;;;;;;;;;;5038374;28;20021;-79
2022/01/11 10:02:10;;;;;;;51.72;16.45;;;;;;;;;;5043993;28;20528;-79
2022/01/11 10:04:36;;;;;;;42.70;14.68;;;;;;;;;;5040141;28;20025;-78
2022/01/11 10:07:05;;;;;;;57.10;15.85;;;;;;;;;;5022562;28;20498;-77
2022/01/11 10:09:52;;;;;;;38.15;14.10;;;;;;;;;;5039702;28;20021;-78
2022/01/11 10:12:18;;;;;;;46.65;16.38;;;;;;;;;;5024995;28;20504;-78
2022/01/11 10:14:54;;;;;;;48.78;15.40;;;;;;;;;;5023581;28;20030;-78
2022/01/11 10:17:24;;;;;;;46.95;16.65;;;;;;;;;;5043877;28;20029;-78
2022/01/11 10:20:10;;;;;;;38.58;15.32;;;;;;;;;;5042963;28;20017;-78
2022/01/11 10:22:53;;;;;;;41.35;16.05;;;;;;;;;;5039948;28;20056;-78
2022/01/11 10:25:19;;;;;;;36.85;14.77;;;;;;;;;;5044143;28;20029;-78
2022/01/11 10:27:53;;;;;;;37.92;14.35;;;;;;;;;;5043528;28;20021;-79
2022/01/11 10:30:20;;;;;;;;;;;;;;;;;;5041452;28;20040;-77
2022/01/11 10:32:48;;;;;;;47.75;15.15;;;;;;;;;;5040516;28;20382;-78
2022/01/11 10:35:21;;;;;;;49.72;16.00;;;;;;;;;;5021038;28;20437;-78
2022/01/11 10:37:49;;;;;;;41.88;15.00;;;;;;;;;;5041081;28;20112;-79
2022/01/11 10:40:17;;;;;;;48.40;16.58;;;;;;;;;;5038553;28;20501;-77
2022/01/11 10:42:48;;;;;;;46.47;15.25;;;;;;;;;;5039204;28;20034;-79
2022/01/11 10:45:19;;;;;;;45.80;15.90;;;;;;;;;;5042476;28;20021;-78
2022/01/11 10:47:57;;;;;;;44.38;15.90;;;;;;;;;;5039636;28;20036;-78
2022/01/11 10:50:30;;;;;;;47.10;15.77;;;;;;;;;;5023626;28;20033;-78
2022/01/11 10:53:01;;;;;;;53.60;17.27;;;;;;;;;;5020625;28;20483;-78
2022/01/11 10:55:29;;;;;;;47.65;16.35;;;;;;;;;;5038518;28;20029;-78
2022/01/11 10:58:03;;;;;;;43.55;14.85;;;;;;;;;;5039273;28;20022;-78
2022/01/11 11:00:43;;;;;;;44.75;16.02;;;;;;;;;;5040869;28;20044;-79
2022/01/11 11:03:19;;;;;;;46.63;15.40;;;;;;;;;;5042922;28;20021;-79
2022/01/11 11:05:47;;;;;;;41.97;15.23;;;;;;;;;;5043973;28;20029;-78
2022/01/11 11:08:20;;;;;;;55.00;16.13;;;;;;;;;;5040193;28;20036;-79
2022/01/11 11:10:57;;;;;;;53.33;16.35;;;;;;;;;;5039600;28;20021;-78
2022/01/11 11:13:28;;;;;;;44.30;15.13;;;;;;;;;;5040098;28;20083;-78
2022/01/11 11:15:55;;;;;;;46.10;15.52;;;;;;;;;;5037785;28;20025;-77
2022/01/11 11:18:27;;;;;;;42.50;15.38;;;;;;;;;;5040708;28;20024;-77
2022/01/11 11:20:53;;;;;;;42.30;14.93;;;;;;;;;;5022885;28;20116;-78
2022/01/11 11:23:20;;;;;;;39.35;14.73;;;;;;;;;;5040609;28;20056;-79
2022/01/11 11:25:45;;;;;;;41.08;15.10;;;;;;;;;;5039654;28;20056;-78
2022/01/11 11:28:11;;;;;;;47.78;17.25;;;;;;;;;;5040771;28;20394;-78
2022/01/11 11:30:36;;;;;;;42.08;15.18;;;;;;;;;;5042816;28;20030;-78
2022/01/11 11:33:02;;;;;;;44.45;14.38;;;;;;;;;;5043001;28;20034;-79
2022/01/11 11:35:28;;;;;;;42.90;15.40;;;;;;;;;;5042790;28;20025;-78
2022/01/11 11:37:58;;;;;;;41.10;15.27;;;;;;;;;;5039894;28;20108;-78
2022/01/11 11:40:25;;;;;;;45.05;15.52;;;;;;;;;;5041424;28;20514;-79
2022/01/11 11:42:55;;;;;;;36.38;13.38;;;;;;;;;;5040683;28;20494;-79
2022/01/11 11:45:24;;;;;;;46.97;14.55;;;;;;;;;;5040066;28;20112;-78
2022/01/11 11:47:49;;;;;;;47.13;14.52;;;;;;;;;;5038703;28;20101;-79
2022/01/11 11:50:18;;;;;;;39.40;14.30;;;;;;;;;;5023997;28;20033;-78
2022/01/11 11:52:46;;;;;;;51.55;15.93;;;;;;;;;;5040420;28;20096;-78
2022/01/11 11:55:30;;;;;;;47.70;15.77;;;;;;;;;;5036613;28;20017;-79
2022/01/11 11:58:01;;;;;;;54.67;16.77;;;;;;;;;;5038093;28;20044;-78
2022/01/11 12:00:28;;;;;;;45.70;16.02;;;;;;;;;;5038169;28;20112;-79
2022/01/11 12:02:55;;;;;;;45.08;14.70;;;;;;;;;;5038754;28;20029;-79
2022/01/11 12:05:46;;;;;;;40.55;15.27;;;;;;;;;;5037037;28;20079;-78
2022/01/11 12:08:32;;;;;;;46.15;16.98;;;;;;;;;;5040162;28;20513;-79
2022/01/11 12:11:02;;;;;;;45.25;15.00;;;;;;;;;;5020506;28;20057;-78
2022/01/11 12:13:50;;;;;;;37.88;14.75;;;;;;;;;;5040218;28;20029;-78
2022/01/11 12:16:29;;;;;;;39.95;15.00;;;;;;;;;;5039895;28;20510;-77
2022/01/11 12:19:03;;;;;;;35.63;13.50;;;;;;;;;;5022920;28;20029;-78
2022/01/11 12:21:38;;;;;;;48.55;15.02;;;;;;;;;;5040217;28;20041;-79
2022/01/11 12:24:04;;;;;;;43.05;15.40;;;;;;;;;;5039687;28;20026;-78
2022/01/11 12:26:31;;;;;;;40.78;14.52;;;;;;;;;;5038903;28;20025;-78
2022/01/11 12:29:02;;;;;;;34.88;13.13;;;;;;;;;;5035551;28;20021;-79
2022/01/11 12:31:30;;;;;;;35.95;14.00;;;;;;;;;;5038597;28;20048;-79
2022/01/11 12:33:57;;;;;;;41.53;15.52;;;;;;;;;;5035792;28;20475;-78
2022/01/11 12:36:22;;;;;;;40.22;14.07;;;;;;;;;;5036951;28;20071;-79
2022/01/11 12:39:03;;;;;;;40.00;15.25;;;;;;;;;;5038025;28;20029;-78
2022/01/11 12:41:31;;;;;;;42.53;14.57;;;;;;;;;;5036031;28;20026;-79
2022/01/11 12:44:23;;;;;;;41.70;15.32;;;;;;;;;;5040081;28;20067;-79
2022/01/11 12:46:54;;;;;;;45.75;15.75;;;;;;;;;;5038665;28;20047;-81
2022/01/11 12:49:21;;;;;;;40.25;14.43;;;;;;;;;;5041183;28;20031;-79
2022/01/11 12:51:55;;;;;;;39.60;14.27;;;;;;;;;;5042800;28;20033;-78
2022/01/11 12:54:27;;;;;;;43.15;15.80;;;;;;;;;;5041446;28;20025;-78
2022/01/11 12:56:59;;;;;;;50.53;16.00;;;;;;;;;;5042259;28;20045;-79
2022/01/11 12:59:36;;;;;;;40.72;14.90;;;;;;;;;;5041368;28;20498;-79
2022/01/11 13:02:08;;;;;;;33.05;11.65;;;;;;;;;;5040342;28;20053;-78
2022/01/11 13:05:05;;;;;;;39.13;15.23;;;;;;;;;;5042815;28;20022;-79
2022/01/11 13:07:33;;;;;;;39.38;13.93;;;;;;;;;;5043546;28;20033;-79
2022/01/11 13:10:04;;;;;;;47.35;16.50;;;;;;;;;;5040473;28;20037;-78
2022/01/11 13:12:33;;;;;;;35.08;14.52;;;;;;;;;;5037553;28;20391;-77
2022/01/11 13:15:04;;;;;;;40.20;14.52;;;;;;;;;;5038210;28;20025;-77
2022/01/11 13:17:30;;;;;;;47.45;15.98;;;;;;;;;;5037709;28;20025;-77
2022/01/11 13:20:06;;;;;;;46.67;15.35;;;;;;;;;;5039277;28;20026;-77
2022/01/11 13:22:33;;;;;;;42.40;14.80;;;;;;;;;;5037718;28;20098;-79
2022/01/11 13:24:58;;;;;;;43.40;15.32;;;;;;;;;;5038851;28;20026;-78
2022/01/11 13:27:23;;;;;;;39.10;14.75;;;;;;;;;;5038088;28;20545;-78
2022/01/11 13:29:49;;;;;;;46.42;15.90;;;;;;;;;;5040190;28;20021;-79
2022/01/11 13:32:14;;;;;;;42.00;14.68;;;;;;;;;;5044758;28;20029;-78
2022/01/11 13:34:39;;;;;;;38.55;15.27;;;;;;;;;;5043281;28;20044;-78
2022/01/11 13:37:05;;;;;;;40.63;14.25;;;;;;;;;;5037510;28;20156;-77
2022/01/11 13:39:36;;;;;;;43.25;15.63;;;;;;;;;;5037735;28;20029;-77
2022/01/11 13:42:12;;;;;;;45.22;15.63;;;;;;;;;;5038460;28;20044;-77
2022/01/11 13:44:42;;;;;;;45.90;15.32;;;;;;;;;;5040649;28;20056;-78
2022/01/11 13:47:19;;;;;;;38.92;14.20;;;;;;;;;;5044253;28;20096;-77
2022/01/11 13:49:52;;;;;;;41.78;14.63;;;;;;;;;;5044166;28;20506;-79
2022/01/11 13:52:19;;;;;;;43.60;14.88;;;;;;;;;;5040662;28;20087;-79
2022/01/11 13:54:53;;;;;;;43.97;14.65;;;;;;;;;;5038097;28;20109;-78
2022/01/11 13:57:24;;;;;;;38.15;13.57;;;;;;;;;;5023061;28;20165;-78
2022/01/11 13:59:58;;;;;;;45.67;14.35;;;;;;;;;;5039039;28;20036;-79
2022/01/11 14:02:28;;;;;;;36.72;13.48;;;;;;;;;;5038094;28;20124;-78
2022/01/11 14:04:59;;;;;;;41.40;14.80;;;;;;;;;;5037949;28;20026;-78
2022/01/11 14:07:27;;;;;;;42.45;14.75;;;;;;;;;;5019881;28;20025;-78
2022/01/11 14:10:05;;;;;;;44.45;14.57;;;;;;;;;;5023143;28;20130;-78
2022/01/11 14:12:40;;;;;;;42.55;14.85;;;;;;;;;;5039859;28;20086;-78
2022/01/11 14:15:06;;;;;;;45.88;15.48;;;;;;;;;;5037195;28;20443;-78
2022/01/11 14:17:35;;;;;;;34.95;13.95;;;;;;;;;;5037490;28;20018;-78
2022/01/11 14:20:05;;;;;;;49.40;14.70;;;;;;;;;;5038134;28;20044;-78
2022/01/11 14:22:47;;;;;;;46.03;14.27;;;;;;;;;;5044146;28;20021;-79
2022/01/11 14:25:25;;;;;;;39.92;13.55;;;;;;;;;;5038056;28;20029;-77
2022/01/11 14:28:01;;;;;;;30.92;13.05;;;;;;;;;;5019623;28;20034;-78
2022/01/11 14:30:56;;;;;;;48.50;15.68;;;;;;;;;;5036152;28;20025;-77
2022/01/11 14:33:24;;;;;;;37.88;11.80;;;;;;;;;;5037057;28;20120;-78
2022/01/11 14:36:05;;;;;;;36.58;13.60;;;;;;;;;;5022079;28;20025;-78
2022/01/11 14:38:41;;;;;;;37.75;12.60;;;;;;;;;;5037743;28;20032;-78
2022/01/11 14:41:08;;;;;;;35.33;12.90;;;;;;;;;;5040230;28;20490;-79
2022/01/11 14:43:35;;;;;;;31.17;11.25;;;;;;;;;;5037592;28;20044;-78
2022/01/11 14:46:07;;;;;;;34.10;11.50;;;;;;;;;;5036448;28;20068;-78
2022/01/11 14:48:39;;;;;;;41.42;14.32;;;;;;;;;;5037239;28;20490;-79
2022/01/11 14:51:12;;;;;;;45.22;16.05;;;;;;;;;;5037136;28;20029;-78
2022/01/11 14:53:43;;;;;;;40.13;13.68;;;;;;;;;;5039485;28;20028;-78
2022/01/11 14:56:19;;;;;;;41.58;14.70;;;;;;;;;;5037412;28;20095;-78
2022/01/11 14:58:54;;;;;;;34.42;12.93;;;;;;;;;;5037746;28;20028;-77
2022/01/11 15:01:24;;;;;;;44.08;14.90;;;;;;;;;;5036550;28;20018;-78
2022/01/11 15:03:54;;;;;;;45.78;16.90;;;;;;;;;;5024059;28;20017;-78
2022/01/11 15:06:28;;;;;;;37.83;13.40;;;;;;;;;;5023938;28;20085;-78
2022/01/11 15:08:56;;;;;;;36.38;13.25;;;;;;;;;;5036473;28;20510;-79
2022/01/11 15:11:25;;;;;;;43.50;14.73;;;;;;;;;;5038901;28;20071;-78
2022/01/11 15:13:56;;;;;;;42.65;14.85;;;;;;;;;;5038039;28;20025;-78
2022/01/11 15:16:24;;;;;;;42.65;15.10;;;;;;;;;;5019158;28;20017;-78
2022/01/11 15:18:50;;;;;;;43.50;15.27;;;;;;;;;;5037066;28;20378;-78
2022/01/11 15:21:18;;;;;;;28.77;10.27;;;;;;;;;;5019383;28;20494;-78
2022/01/11 15:23:44;;;;;;;43.13;14.55;;;;;;;;;;5040920;28;20474;-78